Time;durP1;ratioP1;P1;durP2;ratioP2;P2;SDS_P1;SDS_P2;PMS_P1;PMS_P2;Temp;Humidity;BMP_temperature;BMP_pressure;BME280_temperature;BME280_humidity;BME280_pressure;Samples;Min_cycle;Max_cycle;Signal;HPM_P1;HPM_P2
2022/07/14 03:02:09;;;;;;;;;;;27.10;38.60;;;;;;5142504;23;45798;-59
2022/07/14 03:04:35;;;;;;;;;;;27.10;38.70;;;;;;4928585;28;45956;-62
2022/07/14 03:07:01;;;;;;;;;;;27.10;38.70;;;;;;4933063;28;45243;-65
2022/07/14 03:09:27;;;;;;;;;;;27.10;38.80;;;;;;4932324;28;45243;-60
2022/07/14 03:11:52;;;;;;;;;;;27.20;38.80;;;;;;4929259;28;45313;-58
2022/07/14 03:14:17;;;;;;;;;;;27.20;38.80;;;;;;4930582;28;45443;-60
2022/07/14 03:16:43;;;;;;;;;;;27.10;38.70;;;;;;4934748;28;44913;-60
2022/07/14 03:19:09;;;;;;;;;;;27.10;38.70;;;;;;4934225;28;45025;-59
2022/07/14 03:21:34;;;;;;;;;;;27.20;38.80;;;;;;4931175;28;45789;-62
2022/07/14 03:24:00;;;;;;;;;;;27.20;38.80;;;;;;4930032;28;46280;-64
2022/07/14 03:26:25;;;;;;;;;;;27.20;38.90;;;;;;4934650;28;44937;-59
2022/07/14 03:28:50;;;;;;;;;;;27.10;38.80;;;;;;4932768;28;45431;-57
2022/07/14 03:31:16;;;;;;;;;;;27.10;38.80;;;;;;4928680;28;46393;-62
2022/07/14 03:33:41;;;;;;;;;;;27.20;38.90;;;;;;4928835;28;46118;-60
2022/07/14 03:36:07;;;;;;;;;;;27.20;38.90;;;;;;4933286;28;44704;-61
2022/07/14 03:38:33;;;;;;;;;;;27.20;39.00;;;;;;4928812;28;45612;-60
2022/07/14 03:41:02;;;;;;;;;;;27.10;38.80;;;;;;4916043;28;44822;-63
2022/07/14 03:43:28;;;;;;;;;;;27.10;39.00;;;;;;4931440;28;45929;-61
2022/07/14 03:45:54;;;;;;;;;;;27.10;38.90;;;;;;4931617;28;45174;-57
2022/07/14 03:48:20;;;;;;;;;;;27.10;39.00;;;;;;4931799;28;45290;-59
2022/07/14 03:50:45;;;;;;;;;;;27.10;39.00;;;;;;4935030;28;45316;-62
2022/07/14 03:53:11;;;;;;;;;;;27.10;39.00;;;;;;4926812;28;45884;-57
2022/07/14 03:55:37;;;;;;;;;;;27.10;39.10;;;;;;4932159;28;45833;-58
2022/07/14 03:58:02;;;;;;;;;;;27.10;39.10;;;;;;4929787;28;45215;-62
2022/07/14 04:00:28;;;;;;;;;;;27.10;39.70;;;;;;4925302;28;45552;-64
2022/07/14 04:02:54;;;;;;;;;;;27.10;39.10;;;;;;4926121;28;46160;-57
2022/07/14 04:05:20;;;;;;;;;;;27.10;39.10;;;;;;4933377;28;45153;-60
2022/07/14 04:07:45;;;;;;;;;;;27.10;39.20;;;;;;4933942;28;45455;-56
2022/07/14 04:10:10;;;;;;;;;;;27.10;39.20;;;;;;4930913;28;45538;-61
2022/07/14 04:12:36;;;;;;;;;;;27.10;39.10;;;;;;4930065;28;47277;-60
2022/07/14 04:15:02;;;;;;;;;;;27.10;39.20;;;;;;4926107;28;44746;-62
2022/07/14 04:17:28;;;;;;;;;;;27.10;39.20;;;;;;4928681;28;45275;-65
2022/07/14 04:19:53;;;;;;;;;;;27.10;39.20;;;;;;4933310;28;45282;-58
2022/07/14 04:22:19;;;;;;;;;;;27.10;39.20;;;;;;4929583;28;45218;-62
2022/07/14 04:24:44;;;;;;;;;;;27.10;39.30;;;;;;4928488;28;45069;-60
2022/07/14 04:27:10;;;;;;;;;;;27.10;39.30;;;;;;4932880;28;45003;-60
2022/07/14 04:29:35;;;;;;;;;;;27.10;39.20;;;;;;4934243;28;45646;-60
2022/07/14 04:32:01;;;;;;;;;;;27.10;39.30;;;;;;4924019;28;49104;-60
2022/07/14 04:34:26;;;;;;;;;;;27.10;39.90;;;;;;4929444;28;44971;-60
2022/07/14 04:36:52;;;;;;;;;;;27.10;39.30;;;;;;4930451;28;45359;-58
2022/07/14 04:39:17;;;;;;;;;;;27.10;39.30;;;;;;4929363;28;45492;-55
2022/07/14 04:41:42;;;;;;;;;;;27.00;39.30;;;;;;4932706;28;47033;-59
2022/07/14 04:44:08;;;;;;;;;;;27.00;39.40;;;;;;4935062;28;45467;-57
2022/07/14 04:46:33;;;;;;;;;;;27.10;39.40;;;;;;4933934;28;45182;-58
2022/07/14 04:54:27;;;;;;;;;;;27.10;39.50;;;;;;4924455;28;45487;-60
2022/07/14 04:56:53;;;;;;;;;;;27.10;39.50;;;;;;4925237;28;45339;-56
2022/07/14 04:59:18;;;;;;;;;;;27.10;39.30;;;;;;4932395;28;45894;-58
2022/07/14 05:01:44;;;;;;;;;;;27.10;39.50;;;;;;4926894;28;45115;-59
2022/07/14 05:04:09;;;;;;;;;;;27.10;39.40;;;;;;4927885;28;45556;-56
2022/07/14 05:06:35;;;;;;;;;;;27.10;39.40;;;;;;4932269;28;45229;-62
2022/07/14 05:09:01;;;;;;;;;;;27.10;39.40;;;;;;4925603;28;45123;-60
2022/07/14 05:11:26;;;;;;;;;;;27.10;39.30;;;;;;4928628;28;46165;-57
2022/07/14 05:13:55;;;;;;;;;;;27.10;39.50;;;;;;4922149;28;44991;-60
2022/07/14 05:16:20;;;;;;;;;;;27.10;39.40;;;;;;4924511;28;45206;-57
2022/07/14 05:18:46;;;;;;;;;;;27.10;39.40;;;;;;4926951;28;45569;-61
2022/07/14 05:21:12;;;;;;;;;;;27.10;39.50;;;;;;4925376;28;46081;-59
2022/07/14 05:23:37;;;;;;;;;;;27.10;39.50;;;;;;4930946;28;45299;-62
2022/07/14 05:26:08;;;;;;;;;;;27.10;39.40;;;;;;4929490;28;45573;-58
2022/07/14 05:28:34;;;;;;;;;;;27.10;39.50;;;;;;4927884;28;45467;-58
2022/07/14 05:31:00;;;;;;;;;;;27.10;39.50;;;;;;4928479;28;46166;-59
2022/07/14 05:33:25;;;;;;;;;;;27.10;39.40;;;;;;4934759;28;45390;-61
2022/07/14 05:35:51;;;;;;;;;;;27.10;39.40;;;;;;4930348;28;45901;-58
2022/07/14 05:38:16;;;;;;;;;;;27.10;39.40;;;;;;4931752;28;46688;-59
2022/07/14 05:40:42;;;;;;;;;;;27.10;39.40;;;;;;4924622;28;45193;-57
2022/07/14 05:43:07;;;;;;;;;;;27.10;39.40;;;;;;4926077;28;45672;-63
2022/07/14 05:45:33;;;;;;;;;;;27.20;39.40;;;;;;4931305;28;45225;-60
2022/07/14 05:47:58;;;;;;;;;;;27.20;39.40;;;;;;4915143;28;45579;-62
2022/07/14 05:50:24;;;;;;;;;;;27.20;39.50;;;;;;4925614;28;46336;-56
2022/07/14 05:52:49;;;;;;;;;;;27.20;39.50;;;;;;4928879;28;45588;-60
2022/07/14 05:55:14;;;;;;;;;;;27.20;39.40;;;;;;4931104;28;45076;-60
2022/07/14 05:57:40;;;;;;;;;;;27.20;39.50;;;;;;4931551;28;45151;-59
2022/07/14 06:00:06;;;;;;;;;;;27.20;39.40;;;;;;4926511;28;45920;-60
2022/07/14 06:02:32;;;;;;;;;;;27.20;39.40;;;;;;4927467;28;45456;-60
2022/07/14 06:04:57;;;;;;;;;;;27.20;39.30;;;;;;4933950;28;45495;-59
2022/07/14 06:07:23;;;;;;;;;;;27.20;39.30;;;;;;4931254;28;45809;-59
2022/07/14 06:09:50;;;;;;;;;;;27.30;39.30;;;;;;4924347;28;46210;-63
2022/07/14 06:12:16;;;;;;;;;;;27.30;39.20;;;;;;4931165;28;45346;-60
2022/07/14 06:14:43;;;;;;;;;;;27.30;39.20;;;;;;4931593;28;46071;-61
2022/07/14 06:17:09;;;;;;;;;;;27.30;39.20;;;;;;4925184;28;45533;-61
2022/07/14 06:19:34;;;;;;;;;;;27.30;39.30;;;;;;4931796;28;45893;-59
2022/07/14 06:22:02;;;;;;;;;;;27.40;39.30;;;;;;4937853;28;45342;-57
2022/07/14 06:24:28;;;;;;;;;;;27.40;39.30;;;;;;4930382;28;44614;-61
2022/07/14 06:26:53;;;;;;;;;;;27.40;39.20;;;;;;4934289;28;44658;-58
2022/07/14 06:29:19;;;;;;;;;;;27.40;39.30;;;;;;4927678;28;46154;-59
2022/07/14 06:31:44;;;;;;;;;;;27.40;39.30;;;;;;4935645;28;45314;-59
2022/07/14 06:34:10;;;;;;;;;;;27.50;39.20;;;;;;4934968;28;45306;-58
2022/07/14 06:36:35;;;;;;;;;;;27.50;39.20;;;;;;4934098;28;45276;-62
2022/07/14 06:39:01;;;;;;;;;;;27.50;39.10;;;;;;4933626;28;45978;-56
2022/07/14 06:41:26;;;;;;;;;;;27.60;39.20;;;;;;4932988;28;44901;-60
2022/07/14 06:43:52;;;;;;;;;;;27.60;39.10;;;;;;4935814;28;45006;-55
2022/07/14 06:46:17;;;;;;;;;;;27.60;39.10;;;;;;4940076;28;45257;-62
2022/07/14 06:48:43;;;;;;;;;;;27.70;39.20;;;;;;4934225;28;46074;-57
2022/07/14 06:51:08;;;;;;;;;;;27.70;39.10;;;;;;4932441;28;45328;-63
2022/07/14 06:53:34;;;;;;;;;;;27.80;39.10;;;;;;4929561;28;44925;-56
2022/07/14 06:55:59;;;;;;;;;;;27.80;39.10;;;;;;4935149;28;45449;-60
2022/07/14 06:58:25;;;;;;;;;;;27.90;39.10;;;;;;4929398;28;46042;-58
2022/07/14 07:00:50;;;;;;;;;;;27.90;39.10;;;;;;4924467;28;44987;-62
2022/07/14 07:03:16;;;;;;;;;;;27.90;39.20;;;;;;4935046;28;45321;-57
2022/07/14 07:08:25;;;;;;;;;;;27.90;39.10;;;;;;4938164;28;44810;-60
2022/07/14 07:10:51;;;;;;;;;;;27.90;39.10;;;;;;4932196;28;45584;-59
2022/07/14 07:13:16;;;;;;;;;;;27.90;39.10;;;;;;4936261;28;45306;-56
2022/07/14 07:15:42;;;;;;;;;;;27.90;39.20;;;;;;4937914;28;45047;-57
2022/07/14 07:18:07;;;;;;;;;;;27.90;39.20;;;;;;4932092;28;46006;-61
2022/07/14 07:20:34;;;;;;;;;;;28.00;39.60;;;;;;4921686;28;45395;-59
2022/07/14 07:23:00;;;;;;;;;;;28.00;39.40;;;;;;4930295;28;45178;-62
2022/07/14 07:25:25;;;;;;;;;;;28.00;39.40;;;;;;4937995;28;44753;-61
2022/07/14 07:27:51;;;;;;;;;;;28.00;39.50;;;;;;4929573;28;45535;-60
2022/07/14 07:30:16;;;;;;;;;;;28.00;39.40;;;;;;4901499;28;45295;-61
2022/07/14 07:32:42;;;;;;;;;;;28.00;39.40;;;;;;4930372;28;45054;-62
2022/07/14 07:35:07;;;;;;;;;;;28.00;39.40;;;;;;4928105;28;45250;-57
2022/07/14 07:37:33;;;;;;;;;;;28.10;39.50;;;;;;4931234;28;46124;-59
2022/07/14 07:39:58;;;;;;;;;;;28.10;39.40;;;;;;4928240;28;45372;-57
2022/07/14 07:42:25;;;;;;;;;;;28.10;39.40;;;;;;4930183;28;45362;-58
2022/07/14 07:44:50;;;;;;;;;;;28.10;39.50;;;;;;4933112;28;45052;-61
2022/07/14 07:47:16;;;;;;;;;;;28.10;39.60;;;;;;4928781;28;45954;-56
2022/07/14 07:49:41;;;;;;;;;;;28.10;39.60;;;;;;4932018;28;45158;-62
2022/07/14 07:52:07;;;;;;;;;;;28.20;39.70;;;;;;4927544;28;45360;-59
2022/07/14 07:54:32;;;;;;;;;;;28.10;39.60;;;;;;4930669;28;45431;-59
2022/07/14 07:56:59;;;;;;;;;;;28.20;39.70;;;;;;4930457;28;44989;-65
2022/07/14 07:59:25;;;;;;;;;;;28.20;39.70;;;;;;4929148;28;45318;-62
2022/07/14 08:01:51;;;;;;;;;;;28.20;39.70;;;;;;4931434;28;45416;-62
2022/07/14 08:04:16;;;;;;;;;;;28.30;39.80;;;;;;4932842;28;45289;-60
2022/07/14 08:06:42;;;;;;;;;;;28.30;39.70;;;;;;4930406;28;46098;-61
2022/07/14 08:09:11;;;;;;;;;;;28.30;39.70;;;;;;4928839;28;45413;-59
2022/07/14 08:11:40;;;;;;;;;;;28.30;39.70;;;;;;4932242;28;45243;-58
2022/07/14 08:14:05;;;;;;;;;;;28.30;39.70;;;;;;4931757;28;45373;-58
2022/07/14 08:16:30;;;;;;;;;;;28.30;39.70;;;;;;4930753;28;46327;-60
2022/07/14 08:18:56;;;;;;;;;;;28.40;39.80;;;;;;4927869;28;45689;-57
2022/07/14 08:21:23;;;;;;;;;;;28.40;39.80;;;;;;4933090;28;44986;-57
2022/07/14 08:23:50;;;;;;;;;;;28.40;39.80;;;;;;4932711;28;45516;-61
2022/07/14 08:26:15;;;;;;;;;;;28.50;39.80;;;;;;4928023;28;46767;-59
2022/07/14 08:28:41;;;;;;;;;;;28.50;39.80;;;;;;4931942;28;45147;-58
2022/07/14 08:31:06;;;;;;;;;;;28.50;39.80;;;;;;4927940;28;44707;-59
2022/07/14 08:33:32;;;;;;;;;;;28.50;39.80;;;;;;4931357;28;44972;-62
2022/07/14 08:35:57;;;;;;;;;;;28.50;39.80;;;;;;4933126;28;46929;-58
2022/07/14 08:38:23;;;;;;;;;;;28.50;39.80;;;;;;4935707;28;45448;-55
2022/07/14 08:40:48;;;;;;;;;;;28.50;39.80;;;;;;4932236;28;45103;-59
2022/07/14 08:43:14;;;;;;;;;;;28.60;40.00;;;;;;4929958;28;45538;-56
2022/07/14 08:45:41;;;;;;;;;;;28.60;40.00;;;;;;4932421;28;46787;-58
2022/07/14 08:48:06;;;;;;;;;;;28.60;40.00;;;;;;4932307;28;45555;-57
2022/07/14 08:50:32;;;;;;;;;;;28.70;40.00;;;;;;4926532;28;45115;-58
2022/07/14 08:52:57;;;;;;;;;;;28.70;40.10;;;;;;4931591;28;45537;-55
2022/07/14 08:55:23;;;;;;;;;;;28.70;40.00;;;;;;4927321;28;45860;-59
2022/07/14 08:57:48;;;;;;;;;;;28.70;40.00;;;;;;4927390;28;45538;-59
2022/07/14 09:00:14;;;;;;;;;;;28.80;40.00;;;;;;4935634;28;44950;-60
2022/07/14 09:02:42;;;;;;;;;;;28.80;40.00;;;;;;4921431;28;45027;-60
2022/07/14 09:05:07;;;;;;;;;;;28.80;40.00;;;;;;4907621;28;46193;-60
2022/07/14 09:07:36;;;;;;;;;;;28.80;40.00;;;;;;4928576;28;45001;-56
2022/07/14 09:10:06;;;;;;;;;;;28.80;39.90;;;;;;4925138;28;45337;-60
2022/07/14 09:12:32;;;;;;;;;;;28.80;39.90;;;;;;4928528;28;45522;-59
2022/07/14 09:17:54;;;;;;;;;;;28.90;39.90;;;;;;4932039;28;45269;-58
2022/07/14 09:20:20;;;;;;;;;;;28.90;39.90;;;;;;4933970;28;45501;-60
2022/07/14 09:22:45;;;;;;;;;;;29.00;40.00;;;;;;4933291;28;45531;-60
2022/07/14 09:25:12;;;;;;;;;;;29.00;39.90;;;;;;4935394;28;45180;-59
2022/07/14 09:27:37;;;;;;;;;;;29.00;39.90;;;;;;4930173;28;45302;-61
2022/07/14 09:30:04;;;;;;;;;;;29.10;39.90;;;;;;4931318;28;45661;-60
2022/07/14 09:32:40;;;;;;;;;;;29.00;39.90;;;;;;4935814;28;45153;-61
2022/07/14 09:35:06;;;;;;;;;;;29.10;39.90;;;;;;4926826;28;46100;-57
2022/07/14 09:37:31;;;;;;;;;;;29.10;39.90;;;;;;4929469;28;45211;-62
2022/07/14 09:39:57;;;;;;;;;;;29.10;39.80;;;;;;4910014;28;45298;-56
2022/07/14 09:42:43;;;;;;;;;;;29.10;39.80;;;;;;4932542;28;45473;-61
2022/07/14 09:45:09;;;;;;;;;;;29.10;39.80;;;;;;4926216;28;46021;-61
2022/07/14 09:47:46;;;;;;;;;;;29.20;39.90;;;;;;4934900;28;45220;-56
2022/07/14 09:50:12;;;;;;;;;;;29.20;39.80;;;;;;4928972;28;45509;-59
2022/07/14 09:52:38;;;;;;;;;;;29.20;39.90;;;;;;4905247;28;45523;-60
2022/07/14 09:55:03;;;;;;;;;;;29.20;39.90;;;;;;4930264;28;46109;-57
2022/07/14 09:57:29;;;;;;;;;;;29.20;39.80;;;;;;4924862;28;44961;-63
2022/07/14 09:59:55;;;;;;;;;;;29.30;39.90;;;;;;4922512;28;45277;-58
2022/07/14 10:02:26;;;;;;;;;;;29.30;39.80;;;;;;4926782;28;45097;-61
2022/07/14 10:04:54;;;;;;;;;;;29.30;39.80;;;;;;4927929;28;47106;-58
2022/07/14 10:07:20;;;;;;;;;;;29.30;39.80;;;;;;4925789;28;44951;-57
2022/07/14 10:09:50;;;;;;;;;;;29.30;39.70;;;;;;4926139;28;45434;-61
2022/07/14 10:12:16;;;;;;;;;;;29.40;39.70;;;;;;4911277;28;45451;-58
2022/07/14 10:14:42;;;;;;;;;;;29.40;39.60;;;;;;4913347;28;45790;-58
2022/07/14 10:17:07;;;;;;;;;;;29.40;40.20;;;;;;4915634;28;45646;-61
2022/07/14 10:19:33;;;;;;;;;;;29.40;39.50;;;;;;4913549;28;45588;-56
2022/07/14 10:21:58;;;;;;;;;;;29.40;39.40;;;;;;4913744;28;45419;-57
2022/07/14 10:24:24;;;;;;;;;;;29.40;39.40;;;;;;4929786;28;46430;-55
2022/07/14 10:26:49;;;;;;;;;;;29.40;39.20;;;;;;4910620;28;45226;-56
2022/07/14 10:29:15;;;;;;;;;;;29.50;39.20;;;;;;4934788;28;45651;-56
2022/07/14 10:31:52;;;;;;;;;;;29.50;39.20;;;;;;4931090;28;44802;-56
2022/07/14 10:34:21;;;;;;;;;;;29.50;39.10;;;;;;4919379;28;46978;-57
2022/07/14 10:37:00;;;;;;;;;;;29.50;39.00;;;;;;4927952;28;45336;-60
2022/07/14 10:39:33;;;;;;;;;;;29.50;39.00;;;;;;4927877;28;45222;-58
2022/07/14 10:42:11;;;;;;;;;;;29.50;39.00;;;;;;4914082;28;45040;-59
2022/07/14 10:44:37;;;;;;;;;;;29.50;39.00;;;;;;4924522;28;45951;-56
2022/07/14 10:47:06;;;;;;;;;;;29.50;38.90;;;;;;4926748;28;45499;-56
2022/07/14 10:49:39;;;;;;;;;;;29.50;38.90;;;;;;4936602;28;45268;-58
2022/07/14 10:52:05;;;;;;;;;;;29.50;39.10;;;;;;4933732;28;45745;-60
2022/07/14 10:54:30;;;;;;;;;;;29.50;39.00;;;;;;4939441;28;46124;-54
2022/07/14 10:57:12;;;;;;;;;;;29.50;38.90;;;;;;4935153;28;45306;-54
2022/07/14 10:59:38;;;;;;;;;;;29.50;39.10;;;;;;4938557;28;45454;-58
2022/07/14 11:02:10;;;;;;;;;;;29.50;39.10;;;;;;4938340;28;45702;-57
2022/07/14 11:04:54;;;;;;;;;;;29.50;39.20;;;;;;4937114;28;45285;-58
2022/07/14 11:07:33;;;;;;;;;;;29.50;39.10;;;;;;4933716;28;45279;-59
2022/07/14 11:09:58;;;;;;;;;;;29.60;39.20;;;;;;4937536;28;44720;-54
2022/07/14 11:12:24;;;;;;;;;;;29.60;39.30;;;;;;4932526;28;45371;-56
2022/07/14 11:14:49;;;;;;;;;;;29.60;39.30;;;;;;4916723;28;46255;-61
2022/07/14 11:17:33;;;;;;;;;;;29.60;39.40;;;;;;4934630;28;45158;-56
2022/07/14 11:19:58;;;;;;;;;;;29.60;39.90;;;;;;4930522;28;45632;-55
2022/07/14 11:22:25;;;;;;;;;;;29.60;39.30;;;;;;4937576;28;45288;-58
2022/07/14 11:24:59;;;;;;;;;;;29.60;39.40;;;;;;4935606;28;46167;-60
2022/07/14 11:27:35;;;;;;;;;;;29.60;39.40;;;;;;4936371;28;45246;-62
2022/07/14 11:30:17;;;;;;;;;;;29.60;39.40;;;;;;4930530;28;44987;-59
2022/07/14 11:32:43;;;;;;;;;;;29.70;39.40;;;;;;4919200;28;45232;-59
2022/07/14 11:38:00;;;;;;;;;;;29.70;39.30;;;;;;4933820;28;45186;-57
2022/07/14 11:40:47;;;;;;;;;;;29.70;39.40;;;;;;4936219;28;45278;-56
2022/07/14 11:43:28;;;;;;;;;;;29.70;39.50;;;;;;4937815;28;45296;-57
2022/07/14 11:45:58;;;;;;;;;;;29.70;39.60;;;;;;4932096;28;46205;-59
2022/07/14 11:48:27;;;;;;;;;;;29.70;39.60;;;;;;4927204;28;45367;-58
2022/07/14 11:51:00;;;;;;;;;;;29.80;39.70;;;;;;4928787;28;44838;-58
2022/07/14 11:53:27;;;;;;;;;;;29.80;39.60;;;;;;4932756;28;45334;-56
2022/07/14 11:55:53;;;;;;;;;;;29.80;39.60;;;;;;4933623;28;47034;-54
2022/07/14 11:58:22;;;;;;;;;;;29.80;39.60;;;;;;4917746;28;45513;-54
2022/07/14 12:00:57;;;;;;;;;;;29.80;39.60;;;;;;4932807;28;45405;-60
2022/07/14 12:03:23;;;;;;;;;;;29.80;39.60;;;;;;4932630;28;45356;-60
2022/07/14 12:05:54;;;;;;;;;;;29.80;40.00;;;;;;4934612;28;46265;-62
2022/07/14 12:08:20;;;;;;;;;;;29.90;40.00;;;;;;4931857;28;44939;-57
2022/07/14 12:10:46;;;;;;;;;;;29.90;39.90;;;;;;4931787;28;45247;-57
2022/07/14 12:13:11;;;;;;;;;;;29.90;39.80;;;;;;4933753;28;46432;-60
2022/07/14 12:15:37;;;;;;;;;;;29.90;39.80;;;;;;4926475;28;45710;-61
2022/07/14 12:18:05;;;;;;;;;;;29.90;39.80;;;;;;4932582;28;44631;-57
2022/07/14 12:20:37;;;;;;;;;;;29.90;39.90;;;;;;4936240;28;44938;-59
2022/07/14 12:23:03;;;;;;;;;;;29.90;39.80;;;;;;4936362;28;45164;-55
2022/07/14 12:25:29;;;;;;;;;;;29.90;39.70;;;;;;4938976;28;46052;-61
2022/07/14 12:27:55;;;;;;;;;;;30.00;39.80;;;;;;4915849;28;44857;-58
2022/07/14 12:30:20;;;;;;;;;;;30.00;39.80;;;;;;4917906;28;44781;-60
2022/07/14 12:32:50;;;;;;;;;;;30.00;39.90;;;;;;4927960;28;44858;-60
2022/07/14 12:35:16;;;;;;;;;;;30.00;39.80;;;;;;4913144;28;46130;-57
2022/07/14 12:37:41;;;;;;;;;;;30.00;39.80;;;;;;4924470;28;45265;-56
2022/07/14 12:40:07;;;;;;;;;;;30.10;39.80;;;;;;4911714;28;45403;-55
2022/07/14 12:42:33;;;;;;;;;;;30.10;39.70;;;;;;4926465;28;45151;-57
2022/07/14 12:44:59;;;;;;;;;;;30.10;39.70;;;;;;4931058;28;46492;-60
2022/07/14 12:47:24;;;;;;;;;;;30.10;39.70;;;;;;4931011;28;44714;-59
2022/07/14 12:49:50;;;;;;;;;;;30.10;39.70;;;;;;4939312;28;44725;-56
2022/07/14 12:52:16;;;;;;;;;;;30.10;39.70;;;;;;4932756;28;45265;-54
2022/07/14 12:54:41;;;;;;;;;;;30.10;39.60;;;;;;4937574;28;45027;-61
2022/07/14 12:57:07;;;;;;;;;;;30.10;39.70;;;;;;4929091;28;45322;-65
2022/07/14 12:59:33;;;;;;;;;;;30.10;39.60;;;;;;4915157;28;45564;-56
2022/07/14 13:02:03;;;;;;;;;;;30.10;39.70;;;;;;4931959;28;45022;-61
2022/07/14 13:04:28;;;;;;;;;;;30.10;39.50;;;;;;4927830;28;45318;-58
2022/07/14 13:06:56;;;;;;;;;;;30.20;39.50;;;;;;4931856;28;45151;-56
2022/07/14 13:09:21;;;;;;;;;;;30.20;39.60;;;;;;4928659;28;45342;-59
2022/07/14 13:11:47;;;;;;;;;;;30.20;39.60;;;;;;4924109;28;46282;-63
2022/07/14 13:14:12;;;;;;;;;;;30.20;39.60;;;;;;4927123;28;45377;-57
2022/07/14 13:16:44;;;;;;;;;;;30.20;39.50;;;;;;4935372;28;45391;-57
2022/07/14 13:19:13;;;;;;;;;;;30.20;39.50;;;;;;4930253;28;45177;-59
2022/07/14 13:21:53;;;;;;;;;;;30.20;39.40;;;;;;4933365;28;46285;-58
2022/07/14 13:24:20;;;;;;;;;;;30.20;39.50;;;;;;4932334;28;47041;-57
2022/07/14 13:26:57;;;;;;;;;;;30.20;39.40;;;;;;4936232;28;45270;-65
2022/07/14 13:29:22;;;;;;;;;;;30.30;39.40;;;;;;4925216;28;45277;-62
2022/07/14 13:31:48;;;;;;;;;;;30.30;39.60;;;;;;4932073;28;45025;-62
2022/07/14 13:34:15;;;;;;;;;;;30.30;39.50;;;;;;4916256;28;46259;-64
2022/07/14 13:36:40;;;;;;;;;;;30.30;39.50;;;;;;4930817;28;44955;-59
2022/07/14 13:39:06;;;;;;;;;;;30.30;39.60;;;;;;4914883;28;45212;-61
2022/07/14 13:41:31;;;;;;;;;;;30.30;39.60;;;;;;4933372;28;44882;-63
2022/07/14 13:43:58;;;;;;;;;;;30.30;39.50;;;;;;4915209;28;46789;-62
2022/07/14 13:46:24;;;;;;;;;;;30.30;39.50;;;;;;4931942;28;45264;-65
2022/07/14 13:48:49;;;;;;;;;;;30.30;39.50;;;;;;4930495;28;45053;-61
2022/07/14 13:53:59;;;;;;;;;;;30.30;39.50;;;;;;4937289;28;45997;-62
2022/07/14 13:56:25;;;;;;;;;;;30.30;39.50;;;;;;4934478;28;45194;-61
2022/07/14 13:58:50;;;;;;;;;;;30.30;39.50;;;;;;4929513;28;45249;-65
2022/07/14 14:01:16;;;;;;;;;;;30.30;39.40;;;;;;4930990;28;45275;-63
2022/07/14 14:03:42;;;;;;;;;;;30.30;39.50;;;;;;4929943;28;45875;-62
2022/07/14 14:06:10;;;;;;;;;;;30.30;39.50;;;;;;4932106;28;45364;-62
2022/07/14 14:08:36;;;;;;;;;;;30.30;39.50;;;;;;4931014;28;44739;-62
2022/07/14 14:11:01;;;;;;;;;;;30.30;39.50;;;;;;4929527;28;45343;-69
2022/07/14 14:13:28;;;;;;;;;;;30.30;39.50;;;;;;4929318;28;45387;-62
2022/07/14 14:15:54;;;;;;;;;;;30.30;39.50;;;;;;4929351;28;45236;-59
2022/07/14 14:18:20;;;;;;;;;;;30.30;39.50;;;;;;4935434;28;45824;-59
2022/07/14 14:20:45;;;;;;;;;;;30.30;39.50;;;;;;4933422;28;45644;-55
2022/07/14 14:23:11;;;;;;;;;;;30.30;39.60;;;;;;4934211;28;46105;-58
2022/07/14 14:25:36;;;;;;;;;;;30.30;39.70;;;;;;4933723;28;44972;-58
2022/07/14 14:28:03;;;;;;;;;;;30.30;39.70;;;;;;4928543;28;45335;-56
2022/07/14 14:30:28;;;;;;;;;;;30.30;39.70;;;;;;4926904;28;45395;-62
2022/07/14 14:32:54;;;;;;;;;;;30.40;39.90;;;;;;4933080;28;46848;-57
2022/07/14 14:35:19;;;;;;;;;;;30.30;39.80;;;;;;4935665;28;45115;-58
2022/07/14 14:37:45;;;;;;;;;;;30.40;39.70;;;;;;4937656;28;45238;-56
2022/07/14 14:40:10;;;;;;;;;;;30.40;39.70;;;;;;4932777;28;45685;-57
2022/07/14 14:42:36;;;;;;;;;;;30.40;39.80;;;;;;4942901;28;45203;-55
2022/07/14 14:45:01;;;;;;;;;;;30.30;39.70;;;;;;4937249;28;45323;-63
2022/07/14 14:47:27;;;;;;;;;;;30.30;39.70;;;;;;4936220;28;45276;-58
2022/07/14 14:49:53;;;;;;;;;;;30.30;39.70;;;;;;4936204;28;45166;-57
2022/07/14 14:52:22;;;;;;;;;;;30.30;39.70;;;;;;4934284;28;45199;-56
2022/07/14 14:54:48;;;;;;;;;;;30.30;39.70;;;;;;4942124;28;45253;-62
2022/07/14 14:57:13;;;;;;;;;;;30.30;39.90;;;;;;4940905;28;44958;-59
2022/07/14 14:59:39;;;;;;;;;;;30.30;39.80;;;;;;4936576;28;45230;-60
2022/07/14 15:02:04;;;;;;;;;;;30.30;39.70;;;;;;4930539;28;45969;-56
2022/07/14 15:04:30;;;;;;;;;;;30.30;39.70;;;;;;4937659;28;45392;-60
2022/07/14 15:06:55;;;;;;;;;;;30.30;39.80;;;;;;4938695;28;44737;-59
2022/07/14 15:09:21;;;;;;;;;;;30.30;39.90;;;;;;4942843;28;45326;-56
2022/07/14 15:11:46;;;;;;;;;;;30.30;39.90;;;;;;4935788;28;46010;-57
2022/07/14 15:14:12;;;;;;;;;;;30.30;39.90;;;;;;4939662;28;45138;-60
2022/07/14 15:16:37;;;;;;;;;;;30.30;39.90;;;;;;4937196;28;45278;-59
2022/07/14 15:19:03;;;;;;;;;;;30.30;40.00;;;;;;4938268;28;45773;-55
2022/07/14 15:21:28;;;;;;;;;;;30.30;40.00;;;;;;4933942;28;46256;-56
2022/07/14 15:23:54;;;;;;;;;;;30.30;40.10;;;;;;4942228;28;45314;-56
2022/07/14 15:26:19;;;;;;;;;;;30.30;40.10;;;;;;4940272;28;44627;-62
2022/07/14 15:28:45;;;;;;;;;;;30.30;40.10;;;;;;4938829;28;45167;-58
2022/07/14 15:31:10;;;;;;;;;;;30.30;40.10;;;;;;4937003;28;46988;-56
2022/07/14 15:33:36;;;;;;;;;;;30.30;40.20;;;;;;4940604;28;45304;-54
2022/07/14 15:36:02;;;;;;;;;;;30.30;40.20;;;;;;4927937;28;45752;-64
2022/07/14 15:38:28;;;;;;;;;;;30.30;40.20;;;;;;4932151;28;45299;-60
2022/07/14 15:43:37;;;;;;;;;;;30.30;40.10;;;;;;4930541;28;45601;-57
2022/07/14 15:46:03;;;;;;;;;;;30.30;40.10;;;;;;4918678;28;45405;-61
2022/07/14 15:48:28;;;;;;;;;;;30.30;40.10;;;;;;4935806;28;46410;-57
2022/07/14 15:50:54;;;;;;;;;;;30.30;40.20;;;;;;4936743;28;46102;-61
2022/07/14 15:53:19;;;;;;;;;;;30.30;40.20;;;;;;4915815;28;45304;-63
2022/07/14 15:55:45;;;;;;;;;;;30.30;40.70;;;;;;4935212;28;46174;-61
2022/07/14 15:58:10;;;;;;;;;;;30.20;40.10;;;;;;4933699;28;45504;-57
2022/07/14 16:00:36;;;;;;;;;;;30.20;40.00;;;;;;4931944;28;46213;-62
2022/07/14 16:03:02;;;;;;;;;;;30.20;40.00;;;;;;4932890;28;45313;-62
2022/07/14 16:05:27;;;;;;;;;;;30.20;40.10;;;;;;4933088;28;45393;-59
2022/07/14 16:07:53;;;;;;;;;;;30.20;40.00;;;;;;4934958;28;45631;-58
2022/07/14 16:10:18;;;;;;;;;;;30.20;40.20;;;;;;4936024;28;46137;-58
2022/07/14 16:12:45;;;;;;;;;;;30.20;40.20;;;;;;4929603;28;45336;-65
2022/07/14 16:15:11;;;;;;;;;;;30.20;40.20;;;;;;4934780;28;44754;-59
2022/07/14 16:17:38;;;;;;;;;;;30.20;40.10;;;;;;4936036;28;45030;-57
2022/07/14 16:20:04;;;;;;;;;;;30.10;40.00;;;;;;4930158;28;45590;-63
2022/07/14 16:22:30;;;;;;;;;;;30.20;40.10;;;;;;4930445;28;45509;-61
2022/07/14 16:24:55;;;;;;;;;;;30.10;40.10;;;;;;4930391;28;45100;-62
2022/07/14 16:27:20;;;;;;;;;;;30.10;40.00;;;;;;4928604;28;45380;-63
2022/07/14 16:29:46;;;;;;;;;;;30.10;40.00;;;;;;4931846;28;46518;-59
2022/07/14 16:32:11;;;;;;;;;;;30.10;40.00;;;;;;4930156;28;45182;-55
2022/07/14 16:34:37;;;;;;;;;;;30.10;39.90;;;;;;4932231;28;45170;-60
2022/07/14 16:37:02;;;;;;;;;;;30.10;40.00;;;;;;4930755;28;45544;-58
2022/07/14 16:39:28;;;;;;;;;;;30.10;40.60;;;;;;4931833;28;46194;-60
2022/07/14 16:41:56;;;;;;;;;;;30.10;39.90;;;;;;4932648;28;45345;-58
2022/07/14 16:44:22;;;;;;;;;;;30.10;40.00;;;;;;4932765;28;45837;-62
2022/07/14 16:46:47;;;;;;;;;;;30.10;40.00;;;;;;4931641;28;45418;-61
2022/07/14 16:49:13;;;;;;;;;;;30.10;39.90;;;;;;4931359;28;45871;-56
2022/07/14 16:51:39;;;;;;;;;;;30.10;39.90;;;;;;4934174;28;45590;-57
2022/07/14 16:54:05;;;;;;;;;;;30.10;39.90;;;;;;4933497;28;45274;-60
2022/07/14 16:56:31;;;;;;;;;;;30.10;39.80;;;;;;4916242;28;46182;-61
2022/07/14 16:58:56;;;;;;;;;;;30.10;39.90;;;;;;4930973;28;45895;-63
2022/07/14 17:01:22;;;;;;;;;;;30.10;39.90;;;;;;4932332;28;45170;-59
2022/07/14 17:03:47;;;;;;;;;;;30.00;39.80;;;;;;4932544;28;45172;-62
2022/07/14 17:06:18;;;;;;;;;;;30.00;39.80;;;;;;4933406;28;45612;-56
2022/07/14 17:08:45;;;;;;;;;;;30.00;39.90;;;;;;4932677;28;45447;-61
2022/07/14 17:11:10;;;;;;;;;;;30.00;39.90;;;;;;4931789;28;45036;-58
2022/07/14 17:13:36;;;;;;;;;;;30.00;39.90;;;;;;4933548;28;45686;-62
2022/07/14 17:16:02;;;;;;;;;;;30.00;39.90;;;;;;4932482;28;44665;-58
2022/07/14 17:18:27;;;;;;;;;;;30.00;39.90;;;;;;4931991;28;46427;-57
2022/07/14 17:20:53;;;;;;;;;;;30.00;40.00;;;;;;4930382;28;45564;-60
2022/07/14 17:23:18;;;;;;;;;;;30.00;40.00;;;;;;4932063;28;45636;-60
2022/07/14 17:25:46;;;;;;;;;;;30.00;40.00;;;;;;4929541;28;45468;-58
2022/07/14 17:28:11;;;;;;;;;;;30.00;40.00;;;;;;4931635;28;46216;-64
2022/07/14 17:30:37;;;;;;;;;;;29.90;40.00;;;;;;4929770;28;45867;-61
2022/07/14 17:33:02;;;;;;;;;;;29.90;40.10;;;;;;4935123;28;45826;-59